Time;durP1;ratioP1;P1;durP2;ratioP2;P2;SDS_P1;SDS_P2;PMS_P1;PMS_P2;Temp;Humidity;BMP_temperature;BMP_pressure;BME280_temperature;BME280_humidity;BME280_pressure;Samples;Min_cycle;Max_cycle;Signal;HPM_P1;HPM_P2
2023/10/17 00:01:50;;;;;;;9.35;5.40;;;8.00;99.90;;;;;;5016486;28;20127;-71
2023/10/17 00:06:45;;;;;;;11.20;4.93;;;8.10;99.90;;;;;;5026257;28;20389;-71
2023/10/17 00:09:17;;;;;;;9.52;5.03;;;8.10;99.90;;;;;;5016119;28;20469;-71
2023/10/17 00:11:57;;;;;;;10.80;5.28;;;8.10;99.90;;;;;;5019353;28;20065;-70
2023/10/17 00:14:32;;;;;;;11.40;5.20;;;8.20;99.90;;;;;;5021498;28;20041;-70
2023/10/17 00:17:00;;;;;;;10.27;4.50;;;8.10;99.90;;;;;;5015713;28;20076;-71
2023/10/17 00:19:28;;;;;;;9.57;4.20;;;8.20;99.90;;;;;;5012173;28;20456;-71
2023/10/17 00:21:55;;;;;;;10.50;5.25;;;8.20;99.90;;;;;;5004448;28;20056;-71
2023/10/17 00:24:23;;;;;;;9.48;4.65;;;8.20;99.90;;;;;;5012041;28;20041;-71
2023/10/17 00:26:48;;;;;;;9.65;3.95;;;8.10;99.90;;;;;;5012293;28;20390;-71
2023/10/17 00:29:14;;;;;;;8.93;3.97;;;8.10;99.90;;;;;;5013647;28;20041;-71
2023/10/17 00:31:49;;;;;;;7.28;3.72;;;8.10;99.90;;;;;;5013242;28;20041;-71
2023/10/17 00:34:17;;;;;;;6.90;3.65;;;8.10;99.90;;;;;;5015624;28;20081;-71
2023/10/17 00:36:49;;;;;;;6.72;3.28;;;8.10;99.90;;;;;;5017605;28;20409;-71
2023/10/17 00:39:31;;;;;;;11.85;3.60;;;8.10;99.90;;;;;;5014044;28;20495;-71
2023/10/17 00:44:34;;;;;;;4.82;3.10;;;8.10;99.90;;;;;;5015979;28;20029;-71
2023/10/17 00:47:03;;;;;;;10.25;3.58;;;8.10;99.90;;;;;;5008814;28;20077;-71
2023/10/17 00:49:40;;;;;;;6.28;2.88;;;8.10;99.90;;;;;;5017748;28;20473;-71
2023/10/17 00:52:16;;;;;;;9.07;3.78;;;8.10;99.90;;;;;;4999847;28;20419;-71
2023/10/17 00:54:42;;;;;;;7.10;3.42;;;8.10;99.90;;;;;;5014007;28;20132;-70
2023/10/17 00:57:08;;;;;;;;;;;8.10;99.90;;;;;;5016648;28;20124;-70
2023/10/17 00:59:34;;;;;;;9.48;2.80;;;8.10;99.90;;;;;;5020653;28;20036;-71
2023/10/17 01:02:08;;;;;;;8.77;3.37;;;8.10;99.90;;;;;;5015972;28;20072;-71
2023/10/17 01:04:44;;;;;;;9.15;3.15;;;8.10;99.90;;;;;;5019999;28;20041;-71
2023/10/17 01:07:23;;;;;;;7.53;3.05;;;8.10;99.90;;;;;;5023339;28;20520;-71
2023/10/17 01:09:55;;;;;;;7.90;3.38;;;8.10;99.90;;;;;;5021344;28;20446;-71
2023/10/17 01:12:28;;;;;;;9.73;3.47;;;8.20;99.90;;;;;;5021370;28;20053;-71
2023/10/17 01:14:54;;;;;;;9.38;3.45;;;8.20;99.90;;;;;;5012729;28;20128;-71
2023/10/17 01:17:27;;;;;;;11.60;3.40;;;8.20;99.90;;;;;;5000692;28;20038;-71
2023/10/17 01:20:07;;;;;;;13.00;3.40;;;8.20;99.90;;;;;;4999322;28;20073;-71
2023/10/17 01:22:33;;;;;;;14.05;3.70;;;8.20;99.90;;;;;;5004576;28;20053;-71
2023/10/17 01:25:06;;;;;;;8.23;2.80;;;8.20;99.90;;;;;;5002242;28;20090;-71
2023/10/17 01:27:32;;;;;;;10.63;3.58;;;8.20;99.90;;;;;;5023248;28;20049;-71
2023/10/17 01:29:59;;;;;;;7.37;3.33;;;8.20;99.90;;;;;;5015260;28;20524;-71
2023/10/17 01:32:27;;;;;;;7.95;2.75;;;8.20;99.90;;;;;;5014579;28;20045;-71
2023/10/17 01:34:52;;;;;;;8.35;3.10;;;8.20;99.90;;;;;;5020514;28;20112;-71
2023/10/17 01:37:19;;;;;;;5.75;2.88;;;8.20;99.90;;;;;;4999010;28;20116;-71
2023/10/17 01:39:45;;;;;;;5.15;2.60;;;8.20;99.90;;;;;;5020396;28;20045;-71
2023/10/17 01:42:14;;;;;;;10.07;3.60;;;8.20;99.90;;;;;;5012688;28;20371;-72
2023/10/17 01:44:39;;;;;;;7.15;3.13;;;8.20;99.90;;;;;;5018452;28;20109;-71
2023/10/17 01:47:08;;;;;;;7.07;2.90;;;8.10;99.90;;;;;;5015990;28;20096;-72
2023/10/17 01:49:34;;;;;;;10.35;3.25;;;8.10;99.90;;;;;;5014498;28;20038;-71
2023/10/17 01:51:59;;;;;;;5.33;3.00;;;8.10;99.90;;;;;;5015451;28;20124;-73
2023/10/17 01:54:29;;;;;;;8.97;3.70;;;8.10;99.90;;;;;;5026434;28;20376;-71
2023/10/17 01:57:05;;;;;;;7.20;3.17;;;8.10;99.90;;;;;;5022245;28;20048;-71
2023/10/17 01:59:34;;;;;;;7.93;3.03;;;8.10;99.90;;;;;;5018785;28;20099;-71
2023/10/17 02:02:03;;;;;;;6.65;2.72;;;8.00;99.90;;;;;;5022261;28;20045;-71
2023/10/17 02:04:30;;;;;;;9.52;3.78;;;8.00;99.90;;;;;;5016372;28;20398;-71
2023/10/17 02:06:56;;;;;;;6.07;3.25;;;8.00;99.90;;;;;;5016582;28;20045;-71
2023/10/17 02:09:44;;;;;;;10.43;2.93;;;8.00;99.90;;;;;;5018075;28;20420;-72
2023/10/17 02:12:12;;;;;;;6.93;2.53;;;8.00;99.90;;;;;;5015467;28;20458;-72
2023/10/17 02:14:41;;;;;;;8.30;2.63;;;7.90;99.90;;;;;;5022989;28;20502;-72
2023/10/17 02:17:11;;;;;;;9.20;3.58;;;7.90;99.90;;;;;;5013625;28;20037;-72
2023/10/17 02:19:39;;;;;;;7.65;2.95;;;7.90;99.90;;;;;;5022932;28;20037;-72
2023/10/17 02:22:11;;;;;;;10.23;3.00;;;7.80;99.90;;;;;;5019510;28;20046;-72
2023/10/17 02:24:37;;;;;;;6.53;2.95;;;7.80;99.90;;;;;;5000485;28;20405;-72
2023/10/17 02:27:09;;;;;;;14.05;3.50;;;7.70;99.90;;;;;;4993081;28;20045;-72
2023/10/17 02:29:39;;;;;;;4.80;2.95;;;7.60;99.90;;;;;;4996721;28;20129;-72
2023/10/17 02:32:16;;;;;;;8.90;2.90;;;7.60;99.90;;;;;;5019656;28;20045;-72
2023/10/17 02:34:43;;;;;;;4.78;2.50;;;7.60;99.90;;;;;;5015314;28;20077;-72
2023/10/17 02:37:16;;;;;;;;;;;7.50;99.90;;;;;;5022590;28;20056;-72
2023/10/17 02:39:44;;;;;;;6.65;3.25;;;7.50;99.90;;;;;;5013647;28;19921;-71
2023/10/17 02:42:11;;;;;;;7.25;3.63;;;7.40;99.90;;;;;;5020806;28;20041;-72
2023/10/17 02:44:40;;;;;;;5.15;2.67;;;7.40;99.90;;;;;;5018469;28;20045;-72
2023/10/17 02:47:12;;;;;;;9.55;3.17;;;7.30;99.90;;;;;;5010189;28;20402;-72
2023/10/17 02:49:38;;;;;;;9.38;3.45;;;7.30;99.90;;;;;;5022839;28;20041;-72
2023/10/17 02:52:09;;;;;;;6.03;3.15;;;7.20;99.90;;;;;;5015459;28;20087;-72
2023/10/17 02:57:23;;;;;;;10.82;3.20;;;7.10;99.90;;;;;;5013249;28;20487;-72
2023/10/17 02:59:51;;;;;;;10.18;2.90;;;7.10;99.90;;;;;;5021252;28;20038;-72
2023/10/17 03:02:26;;;;;;;9.93;2.67;;;7.10;99.90;;;;;;5021348;28;20099;-72
2023/10/17 03:04:51;;;;;;;7.80;3.53;;;7.10;99.90;;;;;;5017795;28;20136;-72
2023/10/17 03:07:17;;;;;;;8.80;3.07;;;7.00;99.90;;;;;;5015784;28;20120;-72
2023/10/17 03:09:43;;;;;;;6.00;3.00;;;7.00;99.90;;;;;;5000513;28;20045;-72
2023/10/17 03:12:10;;;;;;;;;;;7.00;99.90;;;;;;5010666;28;20067;-72
2023/10/17 03:17:05;;;;;;;11.13;2.92;;;6.90;99.90;;;;;;5020997;28;20044;-72
2023/10/17 03:19:34;;;;;;;8.07;2.80;;;6.80;99.90;;;;;;5021884;28;20033;-72
2023/10/17 03:24:47;;;;;;;6.20;2.92;;;6.80;99.90;;;;;;5017878;28;20041;-72
2023/10/17 03:30:06;;;;;;;6.22;2.35;;;6.80;99.90;;;;;;5012204;28;20073;-72
2023/10/17 03:32:35;;;;;;;5.68;3.00;;;6.80;99.90;;;;;;5023177;28;20171;-72
2023/10/17 03:35:03;;;;;;;6.60;2.85;;;6.70;99.90;;;;;;5016306;28;20598;-72
2023/10/17 03:37:33;;;;;;;8.02;2.60;;;6.70;99.90;;;;;;5007662;28;20069;-72
2023/10/17 03:40:18;;;;;;;6.70;2.50;;;6.60;99.90;;;;;;5016339;28;20096;-72
2023/10/17 03:42:46;;;;;;;7.22;2.75;;;6.60;99.90;;;;;;5012214;28;20057;-71
2023/10/17 03:45:16;;;;;;;6.95;2.78;;;6.70;99.90;;;;;;5016655;28;20068;-72
2023/10/17 03:47:47;;;;;;;5.38;2.67;;;6.60;99.90;;;;;;5019962;28;20094;-72
2023/10/17 03:50:34;;;;;;;7.22;2.85;;;6.50;99.90;;;;;;5023387;28;20442;-72
2023/10/17 03:53:06;;;;;;;7.80;2.42;;;6.50;99.90;;;;;;5022935;28;20474;-72
2023/10/17 03:55:35;;;;;;;7.90;2.72;;;6.40;99.90;;;;;;5025254;28;20049;-72
2023/10/17 03:58:08;;;;;;;6.60;2.83;;;6.40;99.90;;;;;;5018724;28;20103;-72
2023/10/17 04:00:41;;;;;;;5.15;2.80;;;6.40;99.90;;;;;;5007829;28;20469;-72
2023/10/17 04:03:18;;;;;;;7.18;2.90;;;6.40;99.90;;;;;;5020054;28;20076;-72
2023/10/17 04:05:52;;;;;;;5.22;2.65;;;6.30;99.90;;;;;;5021145;28;20038;-72
2023/10/17 04:08:26;;;;;;;5.43;2.63;;;6.30;99.90;;;;;;5020262;28;20096;-72
2023/10/17 04:11:08;;;;;;;5.45;2.50;;;6.30;99.90;;;;;;5001500;28;20373;-72
2023/10/17 04:13:37;;;;;;;4.00;1.77;;;6.20;99.90;;;;;;5024042;28;20041;-72
2023/10/17 04:16:14;;;;;;;8.75;2.42;;;6.20;99.90;;;;;;5002511;28;20091;-72
2023/10/17 04:18:48;;;;;;;5.07;2.33;;;6.10;99.90;;;;;;5003152;28;20041;-76
2023/10/17 04:21:36;;;;;;;4.82;2.55;;;6.20;99.90;;;;;;5013906;28;20049;-72
2023/10/17 04:24:10;;;;;;;4.90;3.13;;;6.20;99.90;;;;;;5012814;28;21135;-74
2023/10/17 04:26:36;;;;;;;4.82;2.38;;;6.10;99.90;;;;;;5021525;28;20103;-75
2023/10/17 04:29:18;;;;;;;5.47;2.20;;;6.10;99.90;;;;;;5018592;28;20418;-74
2023/10/17 04:31:45;;;;;;;4.07;2.13;;;6.00;99.90;;;;;;5016422;28;20077;-73
2023/10/17 04:34:26;;;;;;;5.35;2.55;;;6.00;99.90;;;;;;5020619;28;20045;-74
2023/10/17 04:36:53;;;;;;;4.78;2.47;;;6.00;99.90;;;;;;5023196;28;20056;-77
2023/10/17 04:39:18;;;;;;;;;;;5.90;99.90;;;;;;5014131;28;20067;-76
2023/10/17 04:44:20;;;;;;;4.10;2.17;;;5.90;99.90;;;;;;5031952;28;20045;-73
2023/10/17 04:47:30;;;;;;;5.35;2.67;;;5.80;99.90;;;;;;5014809;28;20038;-73
2023/10/17 04:49:36;;;;;;;5.88;2.17;;;5.90;99.90;;;;;;5016107;28;20048;-73
2023/10/17 04:52:08;;;;;;;5.15;2.95;;;5.90;99.90;;;;;;4999420;28;20060;-74
2023/10/17 04:57:07;;;;;;;7.43;2.45;;;5.80;99.90;;;;;;5020080;28;20580;-77
2023/10/17 06:19:15;;;;;;;5.00;1.92;;;6.50;99.90;;;;;;5017031;28;20124;-70
2023/10/17 06:35:23;;;;;;;5.25;1.55;;;6.50;99.90;;;;;;5017216;28;20090;-70
2023/10/17 06:37:49;;;;;;;6.07;1.98;;;6.50;99.90;;;;;;5015354;28;20168;-69
2023/10/17 06:40:16;;;;;;;5.15;1.92;;;6.50;99.90;;;;;;5015137;28;20057;-70
2023/10/17 06:42:59;;;;;;;5.05;1.67;;;6.50;99.90;;;;;;5016766;28;20045;-69
2023/10/17 06:45:25;;;;;;;5.18;2.00;;;6.50;99.90;;;;;;5011565;28;20073;-70
2023/10/17 06:47:56;;;;;;;5.07;1.80;;;6.50;99.90;;;;;;4994427;28;20054;-70
2023/10/17 06:51:29;;;;;;;8.40;3.22;;;6.50;99.90;;;;;;5019170;28;20052;-70
2023/10/17 06:53:27;;;;;;;35.80;10.07;;;6.50;99.90;;;;;;5027760;28;20485;-70
2023/10/17 06:55:59;;;;;;;48.75;13.68;;;6.40;99.90;;;;;;5015003;28;20289;-70
2023/10/17 06:58:27;;;;;;;45.45;11.30;;;6.40;99.90;;;;;;5016512;28;20047;-70
2023/10/17 07:00:53;;;;;;;16.33;5.72;;;6.50;99.90;;;;;;5014138;28;20053;-70
2023/10/17 07:03:26;;;;;;;18.05;5.50;;;6.50;99.90;;;;;;5019844;28;20052;-70
2023/10/17 07:05:55;;;;;;;8.02;2.90;;;6.50;99.90;;;;;;5011826;28;20531;-70
2023/10/17 07:08:21;;;;;;;6.78;3.00;;;6.50;99.90;;;;;;5019809;28;20065;-70
2023/10/17 07:13:54;;;;;;;4.60;1.85;;;6.50;99.90;;;;;;5015943;28;20791;-70
2023/10/17 07:16:34;;;;;;;5.88;1.75;;;6.50;99.90;;;;;;5005215;28;20051;-70
2023/10/17 07:19:46;;;;;;;6.60;1.98;;;6.50;99.90;;;;;;5019164;28;20053;-70
2023/10/17 07:24:29;;;;;;;6.28;2.20;;;6.50;99.90;;;;;;5024216;28;20068;-69
2023/10/17 07:26:55;;;;;;;3.55;1.95;;;6.50;99.90;;;;;;5019366;28;20100;-69
2023/10/17 07:29:22;;;;;;;3.38;1.98;;;6.50;99.90;;;;;;5020491;28;20131;-69
2023/10/17 07:31:53;;;;;;;13.25;4.30;;;6.50;99.90;;;;;;5005660;28;20133;-69
2023/10/17 07:34:23;;;;;;;11.20;4.18;;;6.50;99.90;;;;;;5022904;28;20113;-70
2023/10/17 07:36:57;;;;;;;7.43;3.47;;;6.50;99.90;;;;;;5018198;28;20176;-69
2023/10/17 07:39:24;;;;;;;6.13;3.22;;;6.50;99.90;;;;;;5018737;28;20033;-69
2023/10/17 07:41:55;;;;;;;5.40;2.00;;;6.50;99.90;;;;;;5022899;28;20405;-69
2023/10/17 07:44:27;;;;;;;9.77;2.42;;;6.50;99.90;;;;;;5018328;28;20038;-69
2023/10/17 07:47:09;;;;;;;3.90;1.80;;;6.50;99.90;;;;;;5013706;28;20060;-69
2023/10/17 07:49:35;;;;;;;5.32;2.22;;;6.60;99.90;;;;;;5020711;28;20457;-69
2023/10/17 07:52:12;;;;;;;7.90;2.60;;;6.60;99.90;;;;;;5016751;28;20054;-69
2023/10/17 07:54:57;;;;;;;4.85;2.50;;;6.70;99.90;;;;;;5007322;28;20037;-69
2023/10/17 07:57:36;;;;;;;6.32;2.42;;;6.60;99.90;;;;;;5023459;28;20104;-69
2023/10/17 08:00:15;;;;;;;4.55;1.77;;;6.60;99.90;;;;;;5017915;28;20049;-69
2023/10/17 08:02:41;;;;;;;7.43;2.08;;;6.60;99.90;;;;;;5020704;28;20092;-69
2023/10/17 08:05:37;;;;;;;3.23;1.87;;;6.70;99.90;;;;;;5001457;28;20495;-69
2023/10/17 08:08:13;;;;;;;4.78;1.75;;;6.80;99.90;;;;;;5017973;28;20502;-69
2023/10/17 08:10:39;;;;;;;3.75;2.20;;;6.80;99.90;;;;;;5016881;28;20468;-69
2023/10/17 08:13:08;;;;;;;8.00;1.92;;;6.90;99.90;;;;;;5018506;28;20375;-69
2023/10/17 08:15:46;;;;;;;4.05;1.70;;;6.90;99.90;;;;;;5001689;28;20085;-69
2023/10/17 08:18:15;;;;;;;6.57;1.83;;;7.00;99.90;;;;;;5026764;28;20399;-69
2023/10/17 08:23:13;;;;;;;4.95;2.60;;;7.10;99.90;;;;;;5025375;28;20071;-69
2023/10/17 08:25:53;;;;;;;4.77;2.00;;;7.10;99.90;;;;;;5020913;28;20442;-69
2023/10/17 08:31:26;;;;;;;7.13;1.83;;;7.30;99.90;;;;;;5029278;28;20076;-69
2023/10/17 08:37:07;;;;;;;3.88;2.00;;;7.60;99.90;;;;;;5015319;28;20046;-69
2023/10/17 08:42:12;;;;;;;8.45;3.55;;;7.80;99.90;;;;;;5017318;28;20081;-70
2023/10/17 08:44:41;;;;;;;12.52;3.70;;;7.90;99.90;;;;;;5018898;28;20100;-70
2023/10/17 08:47:10;;;;;;;6.10;2.28;;;8.10;99.90;;;;;;5013982;28;20077;-69
2023/10/17 08:49:38;;;;;;;4.45;1.60;;;8.20;99.90;;;;;;5015454;28;20401;-69
2023/10/17 08:52:04;;;;;;;2.95;1.40;;;8.30;99.90;;;;;;4995133;28;20046;-69
2023/10/17 08:54:29;;;;;;;5.57;1.40;;;8.50;99.90;;;;;;4987614;28;20746;-69
2023/10/17 08:57:03;;;;;;;3.60;1.80;;;8.60;99.90;;;;;;5004614;28;20080;-70
2023/10/17 09:02:29;;;;;;;5.65;2.10;;;8.80;99.90;;;;;;5024513;28;20034;-69
2023/10/17 09:05:13;;;;;;;4.63;2.05;;;9.00;99.90;;;;;;5020939;28;20053;-70
2023/10/17 09:07:43;;;;;;;5.03;2.03;;;9.10;99.90;;;;;;5022101;28;20046;-69
2023/10/17 09:10:38;;;;;;;5.78;1.63;;;9.20;99.90;;;;;;5018524;28;20045;-70
2023/10/17 09:15:48;;;;;;;1.92;1.02;;;9.50;99.90;;;;;;5022158;28;20513;-69
2023/10/17 09:18:14;;;;;;;3.92;0.95;;;9.50;99.90;;;;;;5022018;28;20033;-70
2023/10/17 09:20:40;;;;;;;4.32;1.15;;;9.70;99.90;;;;;;5017353;28;20046;-70
2023/10/17 09:23:28;;;;;;;4.13;0.73;;;9.80;99.90;;;;;;5005594;28;20060;-70
2023/10/17 09:26:00;;;;;;;3.47;0.93;;;9.90;99.90;;;;;;5018583;28;20042;-70
2023/10/17 09:28:28;;;;;;;3.72;0.73;;;10.00;99.90;;;;;;5022463;28;20049;-69
2023/10/17 09:31:03;;;;;;;5.18;1.08;;;10.10;99.90;;;;;;5014779;28;20405;-69
2023/10/17 09:33:30;;;;;;;5.00;1.42;;;10.10;99.90;;;;;;5022043;28;20505;-69
2023/10/17 09:36:04;;;;;;;3.15;1.00;;;10.20;99.90;;;;;;5001873;28;20502;-69
2023/10/17 09:38:31;;;;;;;2.90;1.30;;;10.30;99.90;;;;;;5018847;28;20069;-70
2023/10/17 09:41:05;;;;;;;2.33;1.33;;;10.40;99.90;;;;;;5026438;28;20110;-71
2023/10/17 09:43:31;;;;;;;4.22;1.00;;;10.50;99.90;;;;;;5018123;28;20045;-71
2023/10/17 09:46:02;;;;;;;4.03;1.13;;;10.60;99.90;;;;;;5018356;28;20486;-71
2023/10/17 09:48:34;;;;;;;2.42;1.25;;;10.60;99.90;;;;;;5015924;28;20545;-72
2023/10/17 09:51:01;;;;;;;3.10;1.38;;;10.70;99.90;;;;;;5025071;28;20514;-71
2023/10/17 09:53:32;;;;;;;4.35;1.40;;;10.90;99.90;;;;;;5016828;28;20034;-71
2023/10/17 09:56:06;;;;;;;5.47;1.55;;;11.00;99.90;;;;;;5021253;28;20041;-71
2023/10/17 09:58:40;;;;;;;4.32;1.33;;;11.10;99.90;;;;;;5026474;28;20033;-71
2023/10/17 10:01:15;;;;;;;4.65;1.67;;;11.10;99.90;;;;;;5024258;28;20041;-71
2023/10/17 10:03:42;;;;;;;6.38;1.48;;;11.30;99.90;;;;;;5021923;28;20087;-71
2023/10/17 10:06:30;;;;;;;2.35;1.40;;;11.40;99.90;;;;;;5018672;28;20433;-71
2023/10/17 10:09:05;;;;;;;3.60;1.70;;;11.50;99.90;;;;;;5018668;28;20319;-72
2023/10/17 10:11:50;;;;;;;5.22;1.40;;;11.60;99.90;;;;;;5005251;28;20054;-73
2023/10/17 10:14:37;;;;;;;3.60;0.95;;;11.70;99.90;;;;;;5016322;28;20033;-73
2023/10/17 10:17:04;;;;;;;6.45;1.73;;;11.80;99.90;;;;;;5018859;28;20042;-73
2023/10/17 10:19:41;;;;;;;3.38;0.95;;;11.80;99.90;;;;;;5017952;28;20181;-72
2023/10/17 10:22:12;;;;;;;2.78;1.00;;;12.00;99.90;;;;;;5001038;28;20282;-75
2023/10/17 10:24:39;;;;;;;2.15;1.00;;;12.00;99.90;;;;;;5024032;28;20049;-73
2023/10/17 10:27:14;;;;;;;2.72;0.90;;;12.10;99.90;;;;;;5021915;28;20046;-74
2023/10/17 10:29:40;;;;;;;4.55;0.88;;;12.20;99.90;;;;;;5014657;28;20124;-69
2023/10/17 10:32:26;;;;;;;;;;;12.20;99.90;;;;;;5020162;28;20108;-69
2023/10/17 10:34:52;;;;;;;6.43;0.82;;;12.30;99.90;;;;;;5020505;28;19963;-72
2023/10/17 10:37:20;;;;;;;2.70;0.95;;;12.40;99.90;;;;;;4999905;28;20050;-71
2023/10/17 10:40:13;;;;;;;7.40;1.23;;;12.50;99.90;;;;;;5019153;28;20103;-71
2023/10/17 10:42:50;;;;;;;2.67;1.20;;;12.50;99.90;;;;;;5021602;28;20045;-71
2023/10/17 10:45:26;;;;;;;;;;;12.60;99.90;;;;;;5018187;28;20041;-71
2023/10/17 10:47:58;;;;;;;3.53;0.70;;;12.60;99.90;;;;;;5012821;28;19960;-71
2023/10/17 10:50:33;;;;;;;2.33;0.88;;;12.60;99.90;;;;;;5017494;28;20041;-73
2023/10/17 10:53:23;;;;;;;2.47;0.80;;;12.70;99.90;;;;;;5015275;28;20133;-73
2023/10/17 10:55:53;;;;;;;2.63;1.00;;;12.70;99.90;;;;;;5020138;28;20227;-73
2023/10/17 10:58:18;;;;;;;4.50;0.90;;;12.80;99.90;;;;;;5032245;28;20092;-73
2023/10/17 11:00:45;;;;;;;4.10;0.90;;;12.90;99.90;;;;;;5015930;28;20581;-73
2023/10/17 11:03:11;;;;;;;1.85;0.65;;;12.90;99.90;;;;;;5016952;28;20290;-73
2023/10/17 11:05:57;;;;;;;;;;;13.00;99.90;;;;;;5020230;28;20548;-73
2023/10/17 11:08:23;;;;;;;3.83;0.80;;;13.00;99.90;;;;;;5011929;28;19920;-73
2023/10/17 11:10:49;;;;;;;;;;;13.00;99.90;;;;;;5017883;28;20045;-73
2023/10/17 11:13:17;;;;;;;5.35;0.52;;;13.10;99.90;;;;;;5020791;28;19943;-71
2023/10/17 11:15:44;;;;;;;2.03;0.60;;;13.20;99.90;;;;;;5019552;28;20041;-72
2023/10/17 11:18:10;;;;;;;1.55;0.60;;;13.20;99.90;;;;;;5018332;28;20502;-72
2023/10/17 11:20:40;;;;;;;2.00;0.60;;;13.30;99.90;;;;;;5023154;28;20123;-71
2023/10/17 11:23:11;;;;;;;2.45;0.65;;;13.30;99.90;;;;;;5007481;28;20494;-71
2023/10/17 11:25:44;;;;;;;1.73;0.50;;;13.30;99.90;;;;;;5021148;28;20046;-71
2023/10/17 11:28:10;;;;;;;3.75;0.70;;;13.40;99.90;;;;;;5021200;28;20354;-71
2023/10/17 11:30:45;;;;;;;0.68;0.40;;;13.40;99.90;;;;;;5020369;28;20036;-70
2023/10/17 11:33:28;;;;;;;3.13;0.60;;;13.50;99.90;;;;;;5013301;28;20053;-70
2023/10/17 11:35:54;;;;;;;4.10;0.43;;;13.50;99.90;;;;;;4996640;28;20049;-71
2023/10/17 11:38:38;;;;;;;1.13;0.60;;;13.60;99.90;;;;;;5017089;28;20033;-71
2023/10/17 11:41:07;;;;;;;2.22;0.70;;;13.60;99.90;;;;;;5017974;28;20155;-71
2023/10/17 11:43:35;;;;;;;2.22;0.50;;;13.70;99.90;;;;;;5004816;28;20079;-71
2023/10/17 11:46:03;;;;;;;2.05;0.60;;;13.80;99.90;;;;;;5007076;28;20050;-71
2023/10/17 11:48:39;;;;;;;1.67;0.55;;;13.80;99.90;;;;;;5011647;28;20033;-69
2023/10/17 11:51:12;;;;;;;3.13;0.70;;;13.90;99.90;;;;;;5014355;28;20057;-70
2023/10/17 11:54:06;;;;;;;0.95;0.32;;;14.00;99.90;;;;;;5016736;28;20101;-69
2023/10/17 11:56:40;;;;;;;3.00;0.40;;;14.00;99.90;;;;;;5017830;28;20033;-69
2023/10/17 11:59:09;;;;;;;3.58;0.68;;;14.00;99.90;;;;;;5022964;28;20060;-70
2023/10/17 12:01:35;;;;;;;2.63;0.70;;;14.10;99.90;;;;;;5026243;28;20041;-70
2023/10/17 12:04:05;;;;;;;1.52;0.50;;;14.20;99.90;;;;;;5021435;28;20041;-70
2023/10/17 12:06:32;;;;;;;4.82;0.88;;;14.30;99.90;;;;;;5025550;28;20053;-70
2023/10/17 12:08:57;;;;;;;0.95;0.60;;;14.30;99.90;;;;;;5022933;28;20233;-70
2023/10/17 12:11:26;;;;;;;2.25;0.57;;;14.30;99.90;;;;;;5024022;28;20230;-69
2023/10/17 12:13:53;;;;;;;3.45;0.98;;;14.30;99.90;;;;;;4997455;28;20141;-70
2023/10/17 12:16:25;;;;;;;1.42;0.60;;;14.30;99.90;;;;;;5024912;28;20033;-70
2023/10/17 12:18:55;;;;;;;4.70;0.77;;;14.40;99.90;;;;;;5004374;28;20295;-70
2023/10/17 12:21:20;;;;;;;1.65;0.47;;;14.50;99.90;;;;;;4996684;28;20108;-69
2023/10/17 12:23:46;;;;;;;2.30;0.45;;;14.40;99.90;;;;;;5018329;28;20033;-70
2023/10/17 12:26:14;;;;;;;7.63;1.10;;;14.60;99.90;;;;;;5017436;28;20038;-69
2023/10/17 12:28:43;;;;;;;1.60;0.50;;;14.50;99.90;;;;;;5016886;28;20504;-70
2023/10/17 12:31:10;;;;;;;1.27;0.40;;;14.60;99.90;;;;;;5023581;28;20044;-69
2023/10/17 12:33:36;;;;;;;2.25;0.70;;;14.70;99.90;;;;;;5024676;28;20051;-69
2023/10/17 12:36:05;;;;;;;2.35;1.00;;;14.70;99.90;;;;;;5022799;28;20124;-69
2023/10/17 12:38:33;;;;;;;2.35;0.45;;;14.60;99.90;;;;;;5003327;28;20553;-69
2023/10/17 12:41:08;;;;;;;4.60;0.80;;;14.60;99.90;;;;;;5015966;28;20559;-70
2023/10/17 12:43:35;;;;;;;2.65;0.60;;;14.70;99.90;;;;;;5014763;28;20037;-69
2023/10/17 12:46:01;;;;;;;6.70;0.65;;;14.70;99.90;;;;;;5004957;28;20498;-70
2023/10/17 12:48:28;;;;;;;1.00;0.40;;;14.70;99.90;;;;;;5015113;28;20129;-71
2023/10/17 12:50:54;;;;;;;;;;;14.80;99.90;;;;;;5028318;28;20056;-71
2023/10/17 12:53:19;;;;;;;2.65;0.47;;;14.80;99.90;;;;;;5009673;28;20507;-72
2023/10/17 12:55:45;;;;;;;1.67;0.50;;;14.80;99.90;;;;;;5027442;28;20045;-72
2023/10/17 12:58:11;;;;;;;1.60;0.65;;;14.80;99.90;;;;;;5019690;28;20046;-71
2023/10/17 13:00:39;;;;;;;1.30;0.60;;;14.80;99.90;;;;;;5021717;28;20042;-71
2023/10/17 13:03:06;;;;;;;3.25;0.88;;;14.80;99.90;;;;;;5017951;28;20045;-71
2023/10/17 13:05:32;;;;;;;2.65;0.50;;;14.80;99.90;;;;;;5027838;28;20041;-71
2023/10/17 13:07:58;;;;;;;3.08;0.57;;;14.80;99.90;;;;;;5018199;28;20076;-70
2023/10/17 13:10:24;;;;;;;5.13;0.90;;;14.80;99.90;;;;;;5015096;28;20042;-71
2023/10/17 13:12:50;;;;;;;1.15;0.50;;;14.80;99.90;;;;;;5018957;28;20492;-71
2023/10/17 13:15:16;;;;;;;0.98;0.50;;;14.80;99.90;;;;;;5013022;28;20033;-72
2023/10/17 13:17:42;;;;;;;;;;;14.90;99.90;;;;;;5022064;28;22704;-71
2023/10/17 13:20:09;;;;;;;1.88;0.50;;;15.00;99.90;;;;;;5023253;28;19917;-71
2023/10/17 13:22:46;;;;;;;2.47;0.60;;;14.90;99.90;;;;;;5020265;28;20578;-70
2023/10/17 13:25:12;;;;;;;2.60;0.65;;;14.90;99.90;;;;;;5008276;28;20065;-70
2023/10/17 13:27:38;;;;;;;;;;;14.80;99.90;;;;;;5024584;28;20050;-70
2023/10/17 13:30:07;;;;;;;2.20;0.55;;;14.80;99.90;;;;;;5013386;28;20197;-71
2023/10/17 13:32:33;;;;;;;3.70;0.68;;;14.90;99.90;;;;;;5020132;28;20083;-69
2023/10/17 13:35:00;;;;;;;2.78;0.45;;;14.80;99.90;;;;;;5014470;28;20045;-70
2023/10/17 13:37:28;;;;;;;;;;;14.80;99.90;;;;;;5012616;28;20129;-70
2023/10/17 13:39:55;;;;;;;0.95;0.60;;;14.80;99.90;;;;;;5012170;28;20032;-74
2023/10/17 13:42:20;;;;;;;0.70;0.43;;;14.90;99.90;;;;;;5019186;28;20046;-71
2023/10/17 13:44:46;;;;;;;1.85;0.88;;;14.90;99.90;;;;;;5019228;28;20091;-70
2023/10/17 13:47:13;;;;;;;2.85;0.60;;;14.80;99.90;;;;;;5019363;28;20437;-70
2023/10/17 13:49:39;;;;;;;5.63;0.90;;;14.80;99.90;;;;;;5010243;28;20471;-73
2023/10/17 13:52:05;;;;;;;1.88;0.77;;;14.70;99.90;;;;;;5021806;28;20047;-71
2023/10/17 13:54:37;;;;;;;2.10;0.50;;;14.70;99.90;;;;;;5015992;28;20048;-71
2023/10/17 13:57:09;;;;;;;1.25;0.60;;;14.80;99.90;;;;;;5018410;28;20041;-72
2023/10/17 13:59:38;;;;;;;1.75;0.70;;;14.70;99.90;;;;;;5024700;28;20099;-71
2023/10/17 14:02:08;;;;;;;2.50;1.02;;;14.70;99.90;;;;;;5019994;28;20053;-71
2023/10/17 14:04:37;;;;;;;1.25;0.65;;;14.70;99.90;;;;;;5020709;28;20041;-72
2023/10/17 14:07:06;;;;;;;3.55;0.80;;;14.70;99.90;;;;;;5018038;28;20092;-71
2023/10/17 14:09:32;;;;;;;2.78;0.60;;;14.60;99.90;;;;;;5008658;28;20046;-72
2023/10/17 14:12:02;;;;;;;5.63;1.25;;;14.60;99.90;;;;;;5016050;28;20053;-72
2023/10/17 14:14:30;;;;;;;1.40;0.73;;;14.40;99.90;;;;;;5022329;28;20487;-71
2023/10/17 14:16:58;;;;;;;4.05;1.05;;;14.40;99.90;;;;;;5022517;28;20042;-71
2023/10/17 14:22:20;;;;;;;1.67;0.90;;;14.30;99.90;;;;;;5020866;28;20072;-71
2023/10/17 14:27:22;;;;;;;3.33;0.93;;;14.10;99.90;;;;;;5023151;28;20483;-72
2023/10/17 14:29:49;;;;;;;2.35;0.80;;;14.00;99.90;;;;;;5018872;28;20116;-71
2023/10/17 14:32:20;;;;;;;4.35;1.27;;;13.90;99.90;;;;;;5010853;28;20043;-73
2023/10/17 14:34:47;;;;;;;5.43;0.98;;;13.80;99.90;;;;;;5023175;28;20090;-71
2023/10/17 14:37:14;;;;;;;2.00;1.02;;;13.70;99.90;;;;;;5020382;28;20437;-71
2023/10/17 14:39:40;;;;;;;2.30;0.80;;;13.60;99.90;;;;;;5028224;28;20454;-71
2023/10/17 14:42:06;;;;;;;3.47;0.93;;;13.50;99.90;;;;;;5024350;28;20064;-71
2023/10/17 14:44:32;;;;;;;2.17;0.80;;;13.40;99.90;;;;;;5019180;28;20034;-71
2023/10/17 14:46:58;;;;;;;3.80;0.85;;;13.30;99.90;;;;;;5019549;28;20569;-71
2023/10/17 14:49:26;;;;;;;2.47;1.00;;;13.20;99.90;;;;;;5017027;28;20104;-71
2023/10/17 14:51:53;;;;;;;4.57;0.85;;;13.20;99.90;;;;;;5018232;28;20053;-71
2023/10/17 14:54:19;;;;;;;2.47;1.05;;;13.10;99.90;;;;;;5006440;28;20087;-71
2023/10/17 14:56:44;;;;;;;;;;;13.00;99.90;;;;;;5024046;28;20109;-71
2023/10/17 14:59:10;;;;;;;2.85;1.42;;;12.90;99.90;;;;;;5016421;28;19924;-71
2023/10/17 15:01:36;;;;;;;3.10;0.90;;;12.80;99.90;;;;;;5021222;28;20409;-71
2023/10/17 15:04:02;;;;;;;3.20;1.27;;;12.70;99.90;;;;;;5016955;28;20077;-72
2023/10/17 15:06:31;;;;;;;1.70;0.70;;;12.70;99.90;;;;;;5023560;28;20042;-71
2023/10/17 15:08:57;;;;;;;4.00;1.35;;;12.60;99.90;;;;;;5013519;28;20046;-71
2023/10/17 15:11:23;;;;;;;2.65;0.90;;;12.60;99.90;;;;;;5021033;28;20095;-71
2023/10/17 15:13:49;;;;;;;2.63;1.43;;;12.50;99.90;;;;;;4999252;28;20533;-71
2023/10/17 15:16:19;;;;;;;4.45;0.95;;;12.50;99.90;;;;;;5013458;28;20764;-71
2023/10/17 15:18:45;;;;;;;2.47;0.80;;;12.50;99.90;;;;;;5013508;28;20042;-70
2023/10/17 15:21:19;;;;;;;1.63;0.93;;;12.30;99.90;;;;;;5021176;28;20072;-70
2023/10/17 15:23:46;;;;;;;2.50;0.90;;;12.30;99.90;;;;;;5022672;28;20060;-69
2023/10/17 15:26:11;;;;;;;1.80;0.70;;;12.20;99.90;;;;;;5020566;28;20615;-73
2023/10/17 15:28:41;;;;;;;2.27;0.90;;;12.20;99.90;;;;;;5016938;28;20316;-73
2023/10/17 15:31:08;;;;;;;1.48;0.80;;;12.20;99.90;;;;;;5014556;28;20274;-73
2023/10/17 15:33:35;;;;;;;2.55;1.00;;;12.10;99.90;;;;;;5018647;28;20042;-73
2023/10/17 15:36:11;;;;;;;2.25;0.70;;;12.10;99.90;;;;;;5019852;28;20046;-73